sensor_id;sensor_type;location;lat;lon;timestamp;P1;durP1;ratioP1;P2;durP2;ratioP2
63114;SDS011;49208;50.874;6.466;2023-07-31T06:00:50;10.40;;;3.15;;
63114;SDS011;49208;50.874;6.466;2023-07-31T06:03:16;7.50;;;3.10;;
63114;SDS011;49208;50.874;6.466;2023-07-31T06:05:41;7.88;;;3.05;;
63114;SDS011;49208;50.874;6.466;2023-07-31T06:08:06;7.00;;;3.30;;
63114;SDS011;49208;50.874;6.466;2023-07-31T06:10:33;8.13;;;3.38;;
63114;SDS011;49208;50.874;6.466;2023-07-31T06:12:59;7.97;;;2.90;;
63114;SDS011;49208;50.874;6.466;2023-07-31T06:15:25;8.55;;;3.40;;
63114;SDS011;49208;50.874;6.466;2023-07-31T06:17:50;5.63;;;3.03;;
63114;SDS011;49208;50.874;6.466;2023-07-31T06:20:16;8.45;;;3.25;;
63114;SDS011;49208;50.874;6.466;2023-07-31T06:22:41;6.18;;;2.50;;
63114;SDS011;49208;50.874;6.466;2023-07-31T06:25:06;6.03;;;3.03;;
63114;SDS011;49208;50.874;6.466;2023-07-31T06:27:32;9.48;;;3.25;;
63114;SDS011;49208;50.874;6.466;2023-07-31T06:29:57;7.70;;;2.75;;
63114;SDS011;49208;50.874;6.466;2023-07-31T06:32:23;7.00;;;3.20;;
63114;SDS011;49208;50.874;6.466;2023-07-31T06:34:48;8.13;;;3.45;;
63114;SDS011;49208;50.874;6.466;2023-07-31T06:37:13;12.50;;;3.78;;
63114;SDS011;49208;50.874;6.466;2023-07-31T06:39:39;10.07;;;2.80;;
63114;SDS011;49208;50.874;6.466;2023-07-31T06:42:04;9.95;;;3.63;;
63114;SDS011;49208;50.874;6.466;2023-07-31T06:44:30;7.53;;;2.92;;
63114;SDS011;49208;50.874;6.466;2023-07-31T06:46:55;10.65;;;2.60;;
63114;SDS011;49208;50.874;6.466;2023-07-31T06:49:21;5.47;;;2.75;;
63114;SDS011;49208;50.874;6.466;2023-07-31T06:51:46;6.13;;;3.08;;
63114;SDS011;49208;50.874;6.466;2023-07-31T06:54:11;8.63;;;3.08;;
63114;SDS011;49208;50.874;6.466;2023-07-31T06:56:37;6.03;;;3.28;;
63114;SDS011;49208;50.874;6.466;2023-07-31T06:59:03;6.72;;;3.05;;
63114;SDS011;49208;50.874;6.466;2023-07-31T07:01:28;6.28;;;2.88;;
63114;SDS011;49208;50.874;6.466;2023-07-31T07:03:54;6.20;;;2.70;;
63114;SDS011;49208;50.874;6.466;2023-07-31T07:06:19;6.25;;;2.80;;
63114;SDS011;49208;50.874;6.466;2023-07-31T07:08:45;5.38;;;2.30;;
63114;SDS011;49208;50.874;6.466;2023-07-31T07:11:10;6.85;;;3.10;;
63114;SDS011;49208;50.874;6.466;2023-07-31T07:13:36;8.25;;;2.78;;
63114;SDS011;49208;50.874;6.466;2023-07-31T07:16:01;8.57;;;2.75;;
63114;SDS011;49208;50.874;6.466;2023-07-31T07:18:27;6.10;;;2.40;;
63114;SDS011;49208;50.874;6.466;2023-07-31T07:20:53;6.20;;;2.42;;
63114;SDS011;49208;50.874;6.466;2023-07-31T07:23:19;6.68;;;2.85;;
63114;SDS011;49208;50.874;6.466;2023-07-31T07:25:46;6.10;;;2.80;;
63114;SDS011;49208;50.874;6.466;2023-07-31T07:28:11;6.05;;;2.20;;
63114;SDS011;49208;50.874;6.466;2023-07-31T07:30:37;8.77;;;2.72;;
63114;SDS011;49208;50.874;6.466;2023-07-31T07:33:03;6.28;;;2.33;;
63114;SDS011;49208;50.874;6.466;2023-07-31T07:35:28;5.43;;;2.40;;
63114;SDS011;49208;50.874;6.466;2023-07-31T07:37:54;7.82;;;2.40;;
63114;SDS011;49208;50.874;6.466;2023-07-31T07:40:20;5.60;;;2.40;;
63114;SDS011;49208;50.874;6.466;2023-07-31T07:42:45;6.45;;;2.47;;
63114;SDS011;49208;50.874;6.466;2023-07-31T07:45:11;5.00;;;2.45;;
63114;SDS011;49208;50.874;6.466;2023-07-31T07:47:38;6.07;;;2.25;;
63114;SDS011;49208;50.874;6.466;2023-07-31T07:50:05;6.43;;;2.38;;
63114;SDS011;49208;50.874;6.466;2023-07-31T07:52:31;4.18;;;2.03;;
63114;SDS011;49208;50.874;6.466;2023-07-31T07:54:57;6.82;;;2.65;;
63114;SDS011;49208;50.874;6.466;2023-07-31T07:57:22;8.40;;;3.10;;
63114;SDS011;49208;50.874;6.466;2023-07-31T07:59:48;5.47;;;2.45;;
63114;SDS011;49208;50.874;6.466;2023-07-31T08:02:13;5.50;;;2.30;;
63114;SDS011;49208;50.874;6.466;2023-07-31T08:04:38;7.05;;;2.70;;
63114;SDS011;49208;50.874;6.466;2023-07-31T08:07:04;6.72;;;2.65;;
63114;SDS011;49208;50.874;6.466;2023-07-31T08:09:29;6.68;;;2.75;;
63114;SDS011;49208;50.874;6.466;2023-07-31T08:11:56;6.80;;;2.80;;
63114;SDS011;49208;50.874;6.466;2023-07-31T08:14:26;7.28;;;2.70;;
63114;SDS011;49208;50.874;6.466;2023-07-31T08:16:52;5.47;;;2.35;;
63114;SDS011;49208;50.874;6.466;2023-07-31T08:19:17;5.05;;;2.60;;
63114;SDS011;49208;50.874;6.466;2023-07-31T08:21:43;6.00;;;2.55;;
63114;SDS011;49208;50.874;6.466;2023-07-31T08:24:08;4.78;;;2.35;;
63114;SDS011;49208;50.874;6.466;2023-07-31T08:26:33;5.97;;;2.40;;
63114;SDS011;49208;50.874;6.466;2023-07-31T08:28:59;6.65;;;2.25;;
63114;SDS011;49208;50.874;6.466;2023-07-31T08:31:24;7.78;;;2.72;;
63114;SDS011;49208;50.874;6.466;2023-07-31T08:33:49;6.63;;;2.38;;
63114;SDS011;49208;50.874;6.466;2023-07-31T08:36:15;5.15;;;1.98;;
63114;SDS011;49208;50.874;6.466;2023-07-31T08:38:40;4.55;;;2.22;;
63114;SDS011;49208;50.874;6.466;2023-07-31T08:41:05;5.70;;;2.28;;
63114;SDS011;49208;50.874;6.466;2023-07-31T08:43:31;6.80;;;2.28;;
63114;SDS011;49208;50.874;6.466;2023-07-31T08:45:57;8.10;;;2.47;;
63114;SDS011;49208;50.874;6.466;2023-07-31T08:48:24;4.75;;;2.45;;
63114;SDS011;49208;50.874;6.466;2023-07-31T08:50:53;6.93;;;2.10;;
63114;SDS011;49208;50.874;6.466;2023-07-31T08:53:18;7.10;;;2.60;;
63114;SDS011;49208;50.874;6.466;2023-07-31T08:55:44;5.28;;;2.10;;
63114;SDS011;49208;50.874;6.466;2023-07-31T08:58:10;5.43;;;2.47;;
63114;SDS011;49208;50.874;6.466;2023-07-31T09:00:38;4.20;;;1.90;;
63114;SDS011;49208;50.874;6.466;2023-07-31T09:03:23;5.00;;;2.20;;
63114;SDS011;49208;50.874;6.466;2023-07-31T09:05:51;5.15;;;2.33;;
63114;SDS011;49208;50.874;6.466;2023-07-31T09:08:19;6.18;;;1.95;;
63114;SDS011;49208;50.874;6.466;2023-07-31T09:10:46;5.43;;;2.13;;
63114;SDS011;49208;50.874;6.466;2023-07-31T09:13:12;5.43;;;2.42;;
63114;SDS011;49208;50.874;6.466;2023-07-31T09:15:42;7.25;;;2.20;;
63114;SDS011;49208;50.874;6.466;2023-07-31T09:18:09;6.78;;;2.42;;
63114;SDS011;49208;50.874;6.466;2023-07-31T09:20:35;4.25;;;2.05;;
63114;SDS011;49208;50.874;6.466;2023-07-31T09:23:07;6.18;;;2.45;;
63114;SDS011;49208;50.874;6.466;2023-07-31T09:25:35;5.82;;;2.28;;
63114;SDS011;49208;50.874;6.466;2023-07-31T09:28:02;5.45;;;2.40;;
63114;SDS011;49208;50.874;6.466;2023-07-31T09:30:30;6.72;;;2.13;;
63114;SDS011;49208;50.874;6.466;2023-07-31T09:33:05;4.30;;;2.53;;
63114;SDS011;49208;50.874;6.466;2023-07-31T09:35:32;4.18;;;2.22;;
63114;SDS011;49208;50.874;6.466;2023-07-31T09:38:00;4.80;;;2.33;;
63114;SDS011;49208;50.874;6.466;2023-07-31T09:40:30;4.72;;;2.10;;
63114;SDS011;49208;50.874;6.466;2023-07-31T09:43:00;5.43;;;2.47;;
63114;SDS011;49208;50.874;6.466;2023-07-31T09:45:30;6.95;;;2.17;;
63114;SDS011;49208;50.874;6.466;2023-07-31T09:47:59;5.38;;;2.28;;
63114;SDS011;49208;50.874;6.466;2023-07-31T09:50:25;6.25;;;2.13;;
63114;SDS011;49208;50.874;6.466;2023-07-31T09:52:51;5.40;;;1.88;;
63114;SDS011;49208;50.874;6.466;2023-07-31T09:55:17;6.97;;;2.35;;
63114;SDS011;49208;50.874;6.466;2023-07-31T09:57:44;6.37;;;2.30;;
63114;SDS011;49208;50.874;6.466;2023-07-31T10:00:12;5.65;;;2.15;;
63114;SDS011;49208;50.874;6.466;2023-07-31T10:02:38;4.57;;;1.80;;
63114;SDS011;49208;50.874;6.466;2023-07-31T10:05:04;4.40;;;1.83;;
63114;SDS011;49208;50.874;6.466;2023-07-31T10:07:31;6.55;;;2.33;;
63114;SDS011;49208;50.874;6.466;2023-07-31T10:10:02;5.63;;;2.35;;
63114;SDS011;49208;50.874;6.466;2023-07-31T10:12:29;4.75;;;1.80;;
63114;SDS011;49208;50.874;6.466;2023-07-31T10:14:57;5.43;;;1.83;;
63114;SDS011;49208;50.874;6.466;2023-07-31T10:19:50;6.63;;;2.17;;
63114;SDS011;49208;50.874;6.466;2023-07-31T10:22:16;5.15;;;1.75;;
63114;SDS011;49208;50.874;6.466;2023-07-31T10:24:43;2.97;;;1.42;;
63114;SDS011;49208;50.874;6.466;2023-07-31T10:27:10;5.40;;;1.58;;
63114;SDS011;49208;50.874;6.466;2023-07-31T10:29:36;3.78;;;1.38;;
63114;SDS011;49208;50.874;6.466;2023-07-31T10:32:04;4.95;;;2.03;;
63114;SDS011;49208;50.874;6.466;2023-07-31T10:34:34;4.80;;;1.65;;
63114;SDS011;49208;50.874;6.466;2023-07-31T10:37:19;5.65;;;1.73;;
63114;SDS011;49208;50.874;6.466;2023-07-31T10:39:58;5.18;;;1.90;;
63114;SDS011;49208;50.874;6.466;2023-07-31T10:42:28;2.60;;;1.33;;
63114;SDS011;49208;50.874;6.466;2023-07-31T10:45:07;3.85;;;1.50;;
63114;SDS011;49208;50.874;6.466;2023-07-31T10:48:17;4.68;;;1.38;;
63114;SDS011;49208;50.874;6.466;2023-07-31T10:50:31;5.55;;;1.23;;
63114;SDS011;49208;50.874;6.466;2023-07-31T10:53:03;3.08;;;1.30;;
63114;SDS011;49208;50.874;6.466;2023-07-31T10:55:41;3.35;;;1.45;;
63114;SDS011;49208;50.874;6.466;2023-07-31T10:58:10;2.60;;;1.10;;
63114;SDS011;49208;50.874;6.466;2023-07-31T11:00:37;3.35;;;1.40;;
63114;SDS011;49208;50.874;6.466;2023-07-31T11:03:08;3.05;;;0.80;;
63114;SDS011;49208;50.874;6.466;2023-07-31T11:08:31;4.28;;;1.30;;
63114;SDS011;49208;50.874;6.466;2023-07-31T11:13:30;2.08;;;0.82;;
63114;SDS011;49208;50.874;6.466;2023-07-31T11:18:29;2.60;;;0.80;;
63114;SDS011;49208;50.874;6.466;2023-07-31T11:20:54;2.30;;;0.68;;
63114;SDS011;49208;50.874;6.466;2023-07-31T11:23:21;2.65;;;1.00;;
63114;SDS011;49208;50.874;6.466;2023-07-31T11:25:47;5.50;;;0.90;;
63114;SDS011;49208;50.874;6.466;2023-07-31T11:28:13;2.97;;;1.00;;
63114;SDS011;49208;50.874;6.466;2023-07-31T11:33:06;3.13;;;1.13;;
63114;SDS011;49208;50.874;6.466;2023-07-31T11:35:36;2.00;;;0.80;;
63114;SDS011;49208;50.874;6.466;2023-07-31T11:38:06;2.25;;;1.10;;
63114;SDS011;49208;50.874;6.466;2023-07-31T11:40:40;3.40;;;1.23;;
63114;SDS011;49208;50.874;6.466;2023-07-31T11:43:09;3.17;;;1.27;;
63114;SDS011;49208;50.874;6.466;2023-07-31T11:48:01;5.07;;;1.50;;
63114;SDS011;49208;50.874;6.466;2023-07-31T11:50:28;3.75;;;1.73;;
63114;SDS011;49208;50.874;6.466;2023-07-31T11:52:56;3.38;;;1.70;;
63114;SDS011;49208;50.874;6.466;2023-07-31T11:55:24;3.85;;;1.55;;
63114;SDS011;49208;50.874;6.466;2023-07-31T11:57:50;3.72;;;2.03;;
63114;SDS011;49208;50.874;6.466;2023-07-31T12:00:16;6.05;;;1.80;;
63114;SDS011;49208;50.874;6.466;2023-07-31T12:02:42;4.75;;;1.98;;
63114;SDS011;49208;50.874;6.466;2023-07-31T12:05:11;4.57;;;1.83;;
63114;SDS011;49208;50.874;6.466;2023-07-31T12:07:44;4.85;;;2.10;;
63114;SDS011;49208;50.874;6.466;2023-07-31T12:10:10;4.70;;;1.98;;
63114;SDS011;49208;50.874;6.466;2023-07-31T12:12:35;5.95;;;1.90;;
63114;SDS011;49208;50.874;6.466;2023-07-31T12:15:01;7.25;;;2.20;;
63114;SDS011;49208;50.874;6.466;2023-07-31T12:17:26;5.18;;;2.17;;
63114;SDS011;49208;50.874;6.466;2023-07-31T12:19:52;5.65;;;2.40;;
63114;SDS011;49208;50.874;6.466;2023-07-31T12:22:17;3.75;;;1.70;;
63114;SDS011;49208;50.874;6.466;2023-07-31T12:24:46;4.70;;;2.28;;
63114;SDS011;49208;50.874;6.466;2023-07-31T12:27:12;4.35;;;1.85;;
63114;SDS011;49208;50.874;6.466;2023-07-31T12:29:39;4.07;;;2.17;;
63114;SDS011;49208;50.874;6.466;2023-07-31T12:32:26;5.97;;;2.47;;
63114;SDS011;49208;50.874;6.466;2023-07-31T12:34:53;4.82;;;2.20;;
63114;SDS011;49208;50.874;6.466;2023-07-31T12:37:20;5.90;;;2.30;;
63114;SDS011;49208;50.874;6.466;2023-07-31T12:39:46;4.43;;;2.08;;
63114;SDS011;49208;50.874;6.466;2023-07-31T12:42:12;4.15;;;2.03;;
63114;SDS011;49208;50.874;6.466;2023-07-31T12:44:37;4.00;;;2.17;;
63114;SDS011;49208;50.874;6.466;2023-07-31T12:47:03;5.30;;;2.28;;
63114;SDS011;49208;50.874;6.466;2023-07-31T12:49:29;10.18;;;2.50;;
63114;SDS011;49208;50.874;6.466;2023-07-31T12:51:54;5.53;;;2.33;;
63114;SDS011;49208;50.874;6.466;2023-07-31T12:54:19;4.35;;;2.08;;
63114;SDS011;49208;50.874;6.466;2023-07-31T12:56:45;5.18;;;2.30;;
63114;SDS011;49208;50.874;6.466;2023-07-31T12:59:10;6.75;;;2.05;;
63114;SDS011;49208;50.874;6.466;2023-07-31T13:01:36;4.88;;;2.10;;
63114;SDS011;49208;50.874;6.466;2023-07-31T13:04:01;4.57;;;2.00;;
63114;SDS011;49208;50.874;6.466;2023-07-31T13:06:26;4.55;;;2.20;;
63114;SDS011;49208;50.874;6.466;2023-07-31T13:08:52;4.50;;;2.30;;
63114;SDS011;49208;50.874;6.466;2023-07-31T13:11:17;4.72;;;2.00;;
63114;SDS011;49208;50.874;6.466;2023-07-31T13:13:42;4.95;;;2.20;;
63114;SDS011;49208;50.874;6.466;2023-07-31T13:16:08;4.03;;;1.63;;
63114;SDS011;49208;50.874;6.466;2023-07-31T13:18:33;4.70;;;1.83;;
63114;SDS011;49208;50.874;6.466;2023-07-31T13:20:59;3.50;;;1.98;;
63114;SDS011;49208;50.874;6.466;2023-07-31T13:23:24;5.65;;;2.15;;
63114;SDS011;49208;50.874;6.466;2023-07-31T13:25:49;3.20;;;1.77;;
63114;SDS011;49208;50.874;6.466;2023-07-31T13:28:15;5.80;;;2.30;;
63114;SDS011;49208;50.874;6.466;2023-07-31T13:30:40;4.60;;;1.90;;
63114;SDS011;49208;50.874;6.466;2023-07-31T13:33:05;4.15;;;1.80;;
63114;SDS011;49208;50.874;6.466;2023-07-31T13:35:31;4.88;;;2.00;;
63114;SDS011;49208;50.874;6.466;2023-07-31T13:37:56;6.13;;;2.10;;
63114;SDS011;49208;50.874;6.466;2023-07-31T13:40:22;3.65;;;1.75;;
63114;SDS011;49208;50.874;6.466;2023-07-31T13:42:48;5.78;;;2.20;;
63114;SDS011;49208;50.874;6.466;2023-07-31T13:45:13;3.85;;;1.83;;
63114;SDS011;49208;50.874;6.466;2023-07-31T13:47:39;4.57;;;1.85;;
63114;SDS011;49208;50.874;6.466;2023-07-31T13:50:04;4.32;;;2.30;;
63114;SDS011;49208;50.874;6.466;2023-07-31T13:52:30;6.55;;;2.58;;
63114;SDS011;49208;50.874;6.466;2023-07-31T13:54:55;5.30;;;2.40;;
63114;SDS011;49208;50.874;6.466;2023-07-31T13:57:20;6.00;;;2.80;;
63114;SDS011;49208;50.874;6.466;2023-07-31T13:59:46;5.10;;;2.25;;
63114;SDS011;49208;50.874;6.466;2023-07-31T14:02:11;5.28;;;2.58;;
63114;SDS011;49208;50.874;6.466;2023-07-31T14:04:37;7.38;;;2.70;;
63114;SDS011;49208;50.874;6.466;2023-07-31T14:07:02;6.88;;;2.95;;
63114;SDS011;49208;50.874;6.466;2023-07-31T14:09:29;5.68;;;2.80;;
63114;SDS011;49208;50.874;6.466;2023-07-31T14:11:54;12.20;;;3.15;;
63114;SDS011;49208;50.874;6.466;2023-07-31T14:14:20;5.07;;;2.80;;
63114;SDS011;49208;50.874;6.466;2023-07-31T14:16:45;5.93;;;2.72;;
63114;SDS011;49208;50.874;6.466;2023-07-31T14:19:11;5.45;;;2.70;;
63114;SDS011;49208;50.874;6.466;2023-07-31T14:21:36;5.20;;;2.70;;
63114;SDS011;49208;50.874;6.466;2023-07-31T14:24:01;6.78;;;2.92;;
63114;SDS011;49208;50.874;6.466;2023-07-31T14:26:27;5.38;;;2.90;;
63114;SDS011;49208;50.874;6.466;2023-07-31T14:28:52;6.03;;;2.97;;
63114;SDS011;49208;50.874;6.466;2023-07-31T14:31:17;5.07;;;3.15;;
63114;SDS011;49208;50.874;6.466;2023-07-31T14:33:43;5.40;;;3.03;;
63114;SDS011;49208;50.874;6.466;2023-07-31T14:36:08;6.90;;;2.65;;
63114;SDS011;49208;50.874;6.466;2023-07-31T14:38:34;6.68;;;2.97;;
63114;SDS011;49208;50.874;6.466;2023-07-31T14:40:59;7.05;;;3.30;;
63114;SDS011;49208;50.874;6.466;2023-07-31T14:43:25;5.38;;;2.60;;
63114;SDS011;49208;50.874;6.466;2023-07-31T14:45:50;5.07;;;2.90;;
63114;SDS011;49208;50.874;6.466;2023-07-31T14:48:16;5.95;;;2.78;;
63114;SDS011;49208;50.874;6.466;2023-07-31T14:50:41;4.72;;;2.40;;
63114;SDS011;49208;50.874;6.466;2023-07-31T14:53:07;5.30;;;2.63;;
63114;SDS011;49208;50.874;6.466;2023-07-31T14:55:33;5.85;;;2.72;;
63114;SDS011;49208;50.874;6.466;2023-07-31T14:57:58;5.68;;;3.25;;
63114;SDS011;49208;50.874;6.466;2023-07-31T15:00:23;5.95;;;3.25;;
63114;SDS011;49208;50.874;6.466;2023-07-31T15:02:49;6.57;;;3.13;;
63114;SDS011;49208;50.874;6.466;2023-07-31T15:05:15;7.85;;;3.42;;
63114;SDS011;49208;50.874;6.466;2023-07-31T15:07:40;7.70;;;3.30;;
63114;SDS011;49208;50.874;6.466;2023-07-31T15:10:06;7.72;;;3.05;;
63114;SDS011;49208;50.874;6.466;2023-07-31T15:12:32;6.95;;;3.05;;
63114;SDS011;49208;50.874;6.466;2023-07-31T15:14:58;5.47;;;2.80;;
63114;SDS011;49208;50.874;6.466;2023-07-31T15:17:23;6.72;;;3.25;;
63114;SDS011;49208;50.874;6.466;2023-07-31T15:19:51;7.00;;;3.13;;
63114;SDS011;49208;50.874;6.466;2023-07-31T15:22:16;7.05;;;3.03;;
63114;SDS011;49208;50.874;6.466;2023-07-31T15:24:42;7.15;;;2.95;;
63114;SDS011;49208;50.874;6.466;2023-07-31T15:27:07;6.45;;;2.83;;
63114;SDS011;49208;50.874;6.466;2023-07-31T15:29:33;6.78;;;3.53;;
63114;SDS011;49208;50.874;6.466;2023-07-31T15:32:01;5.07;;;2.63;;
63114;SDS011;49208;50.874;6.466;2023-07-31T15:34:28;5.30;;;2.97;;
63114;SDS011;49208;50.874;6.466;2023-07-31T15:36:53;6.95;;;3.10;;
63114;SDS011;49208;50.874;6.466;2023-07-31T15:39:18;7.95;;;2.97;;
63114;SDS011;49208;50.874;6.466;2023-07-31T15:41:44;4.95;;;2.47;;
63114;SDS011;49208;50.874;6.466;2023-07-31T15:44:09;5.75;;;2.80;;
63114;SDS011;49208;50.874;6.466;2023-07-31T15:46:35;4.68;;;2.10;;
63114;SDS011;49208;50.874;6.466;2023-07-31T15:49:00;3.95;;;1.98;;
63114;SDS011;49208;50.874;6.466;2023-07-31T15:51:25;3.85;;;1.85;;
63114;SDS011;49208;50.874;6.466;2023-07-31T15:53:51;3.60;;;1.80;;
63114;SDS011;49208;50.874;6.466;2023-07-31T15:56:17;5.53;;;2.03;;
63114;SDS011;49208;50.874;6.466;2023-07-31T15:58:42;4.18;;;1.95;;
63114;SDS011;49208;50.874;6.466;2023-07-31T16:01:08;4.30;;;1.90;;
63114;SDS011;49208;50.874;6.466;2023-07-31T16:03:33;4.10;;;2.10;;
63114;SDS011;49208;50.874;6.466;2023-07-31T16:05:59;4.18;;;1.90;;
63114;SDS011;49208;50.874;6.466;2023-07-31T16:08:24;3.72;;;1.80;;
63114;SDS011;49208;50.874;6.466;2023-07-31T16:10:50;4.18;;;2.10;;
63114;SDS011;49208;50.874;6.466;2023-07-31T16:13:15;3.90;;;1.40;;
63114;SDS011;49208;50.874;6.466;2023-07-31T16:15:41;2.85;;;1.20;;
63114;SDS011;49208;50.874;6.466;2023-07-31T16:18:06;3.30;;;1.60;;
63114;SDS011;49208;50.874;6.466;2023-07-31T16:20:31;3.90;;;1.70;;
63114;SDS011;49208;50.874;6.466;2023-07-31T16:22:57;3.67;;;1.65;;
63114;SDS011;49208;50.874;6.466;2023-07-31T16:25:23;7.43;;;1.48;;
63114;SDS011;49208;50.874;6.466;2023-07-31T16:27:48;3.40;;;1.40;;
63114;SDS011;49208;50.874;6.466;2023-07-31T16:30:14;2.75;;;1.20;;
63114;SDS011;49208;50.874;6.466;2023-07-31T16:32:39;4.13;;;1.63;;
63114;SDS011;49208;50.874;6.466;2023-07-31T16:35:05;3.47;;;1.40;;
63114;SDS011;49208;50.874;6.466;2023-07-31T16:37:31;3.28;;;1.38;;
63114;SDS011;49208;50.874;6.466;2023-07-31T16:39:56;3.58;;;1.35;;
63114;SDS011;49208;50.874;6.466;2023-07-31T16:42:22;4.65;;;1.40;;
63114;SDS011;49208;50.874;6.466;2023-07-31T16:44:48;3.47;;;1.40;;
63114;SDS011;49208;50.874;6.466;2023-07-31T16:47:14;3.60;;;0.98;;
63114;SDS011;49208;50.874;6.466;2023-07-31T16:49:40;2.47;;;1.10;;
63114;SDS011;49208;50.874;6.466;2023-07-31T16:52:05;3.20;;;1.27;;
63114;SDS011;49208;50.874;6.466;2023-07-31T16:54:31;4.22;;;1.73;;
63114;SDS011;49208;50.874;6.466;2023-07-31T16:56:57;4.22;;;1.52;;
63114;SDS011;49208;50.874;6.466;2023-07-31T16:59:23;2.90;;;1.27;;
63114;SDS011;49208;50.874;6.466;2023-07-31T17:01:48;3.08;;;1.50;;
63114;SDS011;49208;50.874;6.466;2023-07-31T17:04:14;4.05;;;1.40;;
63114;SDS011;49208;50.874;6.466;2023-07-31T17:06:39;3.22;;;1.40;;
63114;SDS011;49208;50.874;6.466;2023-07-31T17:09:05;2.95;;;1.20;;
63114;SDS011;49208;50.874;6.466;2023-07-31T17:11:31;2.75;;;1.17;;
63114;SDS011;49208;50.874;6.466;2023-07-31T17:13:57;2.80;;;1.38;;
63114;SDS011;49208;50.874;6.466;2023-07-31T17:16:23;3.25;;;1.35;;
63114;SDS011;49208;50.874;6.466;2023-07-31T17:18:49;3.92;;;1.40;;
63114;SDS011;49208;50.874;6.466;2023-07-31T17:21:14;3.50;;;1.50;;
63114;SDS011;49208;50.874;6.466;2023-07-31T17:23:40;3.45;;;1.63;;
63114;SDS011;49208;50.874;6.466;2023-07-31T17:26:05;3.50;;;1.40;;
63114;SDS011;49208;50.874;6.466;2023-07-31T17:28:32;3.25;;;1.27;;
63114;SDS011;49208;50.874;6.466;2023-07-31T17:30:58;3.25;;;1.20;;
63114;SDS011;49208;50.874;6.466;2023-07-31T17:33:24;4.80;;;1.13;;
63114;SDS011;49208;50.874;6.466;2023-07-31T17:35:49;2.13;;;0.98;;
63114;SDS011;49208;50.874;6.466;2023-07-31T17:38:14;5.18;;;1.25;;
63114;SDS011;49208;50.874;6.466;2023-07-31T17:40:40;2.42;;;0.77;;
63114;SDS011;49208;50.874;6.466;2023-07-31T17:43:05;2.58;;;1.02;;
63114;SDS011;49208;50.874;6.466;2023-07-31T17:45:32;2.45;;;0.80;;
63114;SDS011;49208;50.874;6.466;2023-07-31T17:47:58;2.97;;;1.00;;
63114;SDS011;49208;50.874;6.466;2023-07-31T17:50:24;2.05;;;0.75;;
63114;SDS011;49208;50.874;6.466;2023-07-31T17:52:50;2.33;;;0.70;;
63114;SDS011;49208;50.874;6.466;2023-07-31T17:55:15;1.88;;;0.60;;
63114;SDS011;49208;50.874;6.466;2023-07-31T17:57:41;2.08;;;0.77;;
63114;SDS011;49208;50.874;6.466;2023-07-31T18:00:06;1.23;;;0.55;;
63114;SDS011;49208;50.874;6.466;2023-07-31T18:02:32;1.67;;;0.60;;
63114;SDS011;49208;50.874;6.466;2023-07-31T18:05:00;0.98;;;0.40;;
63114;SDS011;49208;50.874;6.466;2023-07-31T18:07:26;1.20;;;0.50;;
63114;SDS011;49208;50.874;6.466;2023-07-31T18:09:51;2.42;;;0.80;;
63114;SDS011;49208;50.874;6.466;2023-07-31T18:12:16;1.58;;;0.40;;
63114;SDS011;49208;50.874;6.466;2023-07-31T18:14:42;1.55;;;0.60;;
63114;SDS011;49208;50.874;6.466;2023-07-31T18:17:07;1.70;;;0.52;;
63114;SDS011;49208;50.874;6.466;2023-07-31T18:19:32;1.50;;;0.50;;
63114;SDS011;49208;50.874;6.466;2023-07-31T18:21:58;1.42;;;0.50;;
63114;SDS011;49208;50.874;6.466;2023-07-31T18:24:23;1.63;;;0.60;;
63114;SDS011;49208;50.874;6.466;2023-07-31T18:26:49;1.10;;;0.50;;
63114;SDS011;49208;50.874;6.466;2023-07-31T18:29:14;2.15;;;0.80;;
63114;SDS011;49208;50.874;6.466;2023-07-31T18:31:40;1.10;;;0.50;;
63114;SDS011;49208;50.874;6.466;2023-07-31T18:34:05;2.60;;;0.77;;
63114;SDS011;49208;50.874;6.466;2023-07-31T18:36:31;2.63;;;0.80;;
63114;SDS011;49208;50.874;6.466;2023-07-31T18:38:58;1.77;;;0.50;;
63114;SDS011;49208;50.874;6.466;2023-07-31T18:41:23;2.20;;;0.68;;
63114;SDS011;49208;50.874;6.466;2023-07-31T18:43:49;1.73;;;0.70;;
63114;SDS011;49208;50.874;6.466;2023-07-31T18:46:14;2.38;;;0.82;;
63114;SDS011;49208;50.874;6.466;2023-07-31T18:48:42;2.28;;;0.70;;
63114;SDS011;49208;50.874;6.466;2023-07-31T18:51:07;2.13;;;0.60;;
63114;SDS011;49208;50.874;6.466;2023-07-31T18:53:33;3.28;;;0.80;;
63114;SDS011;49208;50.874;6.466;2023-07-31T18:55:58;2.83;;;0.70;;
63114;SDS011;49208;50.874;6.466;2023-07-31T18:58:25;1.47;;;0.50;;
63114;SDS011;49208;50.874;6.466;2023-07-31T19:00:50;1.88;;;0.55;;
63114;SDS011;49208;50.874;6.466;2023-07-31T19:03:15;1.77;;;0.43;;
63114;SDS011;49208;50.874;6.466;2023-07-31T19:05:41;3.38;;;0.70;;
63114;SDS011;49208;50.874;6.466;2023-07-31T19:08:06;1.20;;;0.40;;
63114;SDS011;49208;50.874;6.466;2023-07-31T19:10:35;1.55;;;0.52;;
63114;SDS011;49208;50.874;6.466;2023-07-31T19:13:01;2.67;;;0.60;;
63114;SDS011;49208;50.874;6.466;2023-07-31T19:15:27;1.35;;;0.50;;
63114;SDS011;49208;50.874;6.466;2023-07-31T19:17:52;2.58;;;0.50;;
63114;SDS011;49208;50.874;6.466;2023-07-31T19:20:18;0.95;;;0.40;;
63114;SDS011;49208;50.874;6.466;2023-07-31T19:22:43;1.15;;;0.38;;
63114;SDS011;49208;50.874;6.466;2023-07-31T19:25:09;2.28;;;0.35;;
63114;SDS011;49208;50.874;6.466;2023-07-31T19:27:34;1.08;;;0.50;;
63114;SDS011;49208;50.874;6.466;2023-07-31T19:30:00;1.13;;;0.43;;
63114;SDS011;49208;50.874;6.466;2023-07-31T19:32:25;0.57;;;0.30;;
63114;SDS011;49208;50.874;6.466;2023-07-31T19:34:50;0.45;;;0.20;;
63114;SDS011;49208;50.874;6.466;2023-07-31T19:37:16;1.52;;;0.40;;
63114;SDS011;49208;50.874;6.466;2023-07-31T19:39:42;3.17;;;0.40;;
63114;SDS011;49208;50.874;6.466;2023-07-31T19:42:08;1.33;;;0.30;;
63114;SDS011;49208;50.874;6.466;2023-07-31T19:44:33;1.17;;;0.38;;
63114;SDS011;49208;50.874;6.466;2023-07-31T19:46:59;0.73;;;0.30;;
63114;SDS011;49208;50.874;6.466;2023-07-31T19:49:25;1.05;;;0.32;;
63114;SDS011;49208;50.874;6.466;2023-07-31T19:51:54;0.73;;;0.22;;
63114;SDS011;49208;50.874;6.466;2023-07-31T19:54:19;1.65;;;0.40;;
63114;SDS011;49208;50.874;6.466;2023-07-31T19:56:45;2.42;;;0.50;;
63114;SDS011;49208;50.874;6.466;2023-07-31T19:59:10;2.30;;;0.63;;
63114;SDS011;49208;50.874;6.466;2023-07-31T20:01:36;1.75;;;0.32;;
63114;SDS011;49208;50.874;6.466;2023-07-31T20:04:01;1.15;;;0.43;;
63114;SDS011;49208;50.874;6.466;2023-07-31T20:06:28;1.80;;;0.45;;
63114;SDS011;49208;50.874;6.466;2023-07-31T20:08:53;1.30;;;0.50;;
63114;SDS011;49208;50.874;6.466;2023-07-31T20:11:19;1.35;;;0.50;;
63114;SDS011;49208;50.874;6.466;2023-07-31T20:13:44;1.13;;;0.47;;
63114;SDS011;49208;50.874;6.466;2023-07-31T20:16:10;1.63;;;0.60;;
63114;SDS011;49208;50.874;6.466;2023-07-31T20:18:35;1.40;;;0.60;;
63114;SDS011;49208;50.874;6.466;2023-07-31T20:21:03;1.77;;;0.73;;
63114;SDS011;49208;50.874;6.466;2023-07-31T20:23:29;1.65;;;0.70;;
63114;SDS011;49208;50.874;6.466;2023-07-31T20:25:54;1.48;;;0.60;;
63114;SDS011;49208;50.874;6.466;2023-07-31T20:28:19;1.02;;;0.30;;
63114;SDS011;49208;50.874;6.466;2023-07-31T20:30:45;1.15;;;0.30;;
63114;SDS011;49208;50.874;6.466;2023-07-31T20:33:10;1.30;;;0.40;;
63114;SDS011;49208;50.874;6.466;2023-07-31T20:35:36;3.42;;;0.70;;
63114;SDS011;49208;50.874;6.466;2023-07-31T20:38:02;1.10;;;0.47;;
63114;SDS011;49208;50.874;6.466;2023-07-31T20:40:28;1.02;;;0.38;;
63114;SDS011;49208;50.874;6.466;2023-07-31T20:42:57;1.80;;;0.50;;
63114;SDS011;49208;50.874;6.466;2023-07-31T20:45:27;1.52;;;0.60;;
63114;SDS011;49208;50.874;6.466;2023-07-31T20:47:55;1.70;;;0.50;;
63114;SDS011;49208;50.874;6.466;2023-07-31T20:50:21;1.55;;;0.50;;
63114;SDS011;49208;50.874;6.466;2023-07-31T20:52:46;1.08;;;0.47;;
63114;SDS011;49208;50.874;6.466;2023-07-31T20:55:12;0.90;;;0.30;;
63114;SDS011;49208;50.874;6.466;2023-07-31T20:57:37;1.77;;;0.60;;